Time;durP1;ratioP1;P1;durP2;ratioP2;P2;SDS_P1;SDS_P2;PMS_P1;PMS_P2;Temp;Humidity;BMP_temperature;BMP_pressure;BME280_temperature;BME280_humidity;BME280_pressure;Samples;Min_cycle;Max_cycle;Signal;HPM_P1;HPM_P2
2023/06/23 00:00:22;;;;;;;24.47;13.47;;;;;;;-145.18;100.00;46638.91;5071445;28;20037;-61
2023/06/23 00:02:48;;;;;;;21.90;13.67;;;;;;;-145.18;100.00;46638.91;5080169;28;20036;-60
2023/06/23 00:05:14;;;;;;;20.50;11.73;;;;;;;-145.18;100.00;46638.91;5071699;28;20032;-61
2023/06/23 00:07:39;;;;;;;25.73;14.17;;;;;;;-145.18;100.00;46635.00;5072025;28;20029;-61
2023/06/23 00:10:05;;;;;;;23.60;13.97;;;;;;;-145.18;100.00;46636.94;5071180;28;20483;-60
2023/06/23 00:12:35;;;;;;;22.67;14.37;;;;;;;-145.18;100.00;46642.81;5071649;28;20113;-61
2023/06/23 00:15:07;;;;;;;22.97;14.20;;;;;;;-145.18;100.00;46636.94;5059198;28;20025;-61
2023/06/23 00:17:32;;;;;;;27.13;16.47;;;;;;;-145.18;100.00;46638.91;5071978;28;20041;-61
2023/06/23 00:19:57;;;;;;;25.73;15.63;;;;;;;-145.18;100.00;46636.94;5072727;28;20035;-60
2023/06/23 00:22:23;;;;;;;23.90;15.50;;;;;;;-145.18;100.00;46636.94;5075652;28;20067;-60
2023/06/23 00:24:49;;;;;;;28.20;15.37;;;;;;;-145.18;100.00;46638.91;5075524;28;20408;-60
2023/06/23 00:27:14;;;;;;;26.23;16.50;;;;;;;-145.18;100.00;46636.94;5075003;28;20162;-61
2023/06/23 00:29:40;;;;;;;24.80;15.17;;;;;;;-145.18;100.00;46638.91;5075616;28;20030;-61
2023/06/23 00:32:05;;;;;;;26.20;15.83;;;;;;;-145.18;100.00;46638.91;5075777;28;20182;-61
2023/06/23 00:34:31;;;;;;;21.60;14.33;;;;;;;-145.18;100.00;46640.88;5057399;28;20031;-60
2023/06/23 00:36:56;;;;;;;23.47;16.00;;;;;;;-145.18;100.00;46640.88;5089116;28;20035;-60
2023/06/23 00:39:22;;;;;;;25.73;15.53;;;;;;;-145.18;100.00;46640.88;5058361;28;20035;-61
2023/06/23 00:41:48;;;;;;;25.00;15.67;;;;;;;-145.18;100.00;46642.81;5089215;28;20030;-60
2023/06/23 00:44:14;;;;;;;26.43;16.03;;;;;;;-145.18;100.00;46644.78;5094850;28;20404;-65
2023/06/23 00:46:43;;;;;;;28.23;16.50;;;;;;;-145.18;100.00;46638.91;5093657;28;20020;-65
2023/06/23 00:49:09;;;;;;;23.03;16.33;;;;;;;-145.18;100.00;46644.78;5088081;28;20035;-65
2023/06/23 00:51:35;;;;;;;26.33;17.33;;;;;;;-145.18;100.00;46642.81;5075234;28;20034;-65
2023/06/23 00:54:00;;;;;;;28.40;15.37;;;;;;;-145.18;100.00;46636.94;5094030;28;20036;-65
2023/06/23 00:56:27;;;;;;;27.97;16.07;;;;;;;-145.18;100.00;46642.81;5093991;28;20034;-65
2023/06/23 00:58:53;;;;;;;31.73;18.83;;;;;;;-145.18;100.00;46636.94;5064626;28;20040;-65
2023/06/23 01:01:18;;;;;;;29.07;17.90;;;;;;;-145.18;100.00;46638.91;5072895;28;20407;-65
2023/06/23 01:03:44;;;;;;;31.47;19.07;;;;;;;-145.18;100.00;46638.91;5056327;28;20036;-65
2023/06/23 01:06:36;;;;;;;26.23;17.50;;;;;;;-145.18;100.00;46636.94;5074625;28;20115;-65
2023/06/23 01:09:12;;;;;;;33.27;19.50;;;;;;;-145.18;100.00;46638.91;5074790;28;20025;-65
2023/06/23 01:11:48;;;;;;;31.90;18.13;;;;;;;-145.18;100.00;46635.00;5091793;28;20107;-66
2023/06/23 01:14:26;;;;;;;31.00;20.07;;;;;;;-145.18;100.00;46636.94;5087294;28;20494;-65
2023/06/23 01:17:02;;;;;;;34.07;19.37;;;;;;;-145.18;100.00;46640.88;5083703;28;20031;-65
2023/06/23 01:19:49;;;;;;;33.10;19.73;;;;;;;-145.18;100.00;46638.91;5093763;28;20417;-65
2023/06/23 01:22:32;;;;;;;35.97;20.33;;;;;;;-145.18;100.00;46638.91;5087371;28;20067;-65
2023/06/23 01:25:18;;;;;;;34.87;20.50;;;;;;;-145.18;100.00;46635.00;5077120;28;20043;-65
2023/06/23 01:27:46;;;;;;;34.17;19.90;;;;;;;-145.18;100.00;46638.91;5082693;28;20443;-65
2023/06/23 01:30:15;;;;;;;31.73;20.63;;;;;;;-145.18;100.00;46635.00;5085885;28;20032;-65
2023/06/23 01:32:50;;;;;;;37.17;21.17;;;;;;;-145.18;100.00;46638.91;5086473;28;20047;-65
2023/06/23 01:35:27;;;;;;;34.97;21.55;;;;;;;-145.18;100.00;46633.06;5092742;28;20066;-65
2023/06/23 01:37:57;;;;;;;38.23;22.70;;;;;;;-145.18;100.00;46638.91;5072910;28;20032;-65
2023/06/23 01:40:25;;;;;;;34.37;21.17;;;;;;;-145.18;100.00;46635.00;5066747;28;20031;-65
2023/06/23 01:42:58;;;;;;;33.57;22.00;;;;;;;-145.18;100.00;46633.06;5074416;28;20099;-65
2023/06/23 01:45:25;;;;;;;34.33;22.10;;;;;;;-145.18;100.00;46635.00;5075269;28;20038;-65
2023/06/23 01:47:52;;;;;;;36.23;21.07;;;;;;;-145.18;100.00;46633.06;5086677;28;20097;-65
2023/06/23 01:50:20;;;;;;;40.60;23.30;;;;;;;-145.18;100.00;46635.00;5083628;28;20111;-65
2023/06/23 01:52:47;;;;;;;37.33;23.20;;;;;;;-145.18;100.00;46636.94;5082764;28;20028;-65
2023/06/23 01:55:15;;;;;;;42.07;24.07;;;;;;;-145.18;100.00;46640.88;5073849;28;20097;-65
2023/06/23 01:57:42;;;;;;;40.77;24.07;;;;;;;-145.18;100.00;46635.00;5071952;28;20067;-65
2023/06/23 02:00:13;;;;;;;38.63;23.63;;;;;;;-145.18;100.00;46635.00;5060285;28;20035;-65
2023/06/23 02:02:44;;;;;;;39.53;23.87;;;;;;;-145.18;100.00;46635.00;5073417;28;20450;-66
2023/06/23 02:05:11;;;;;;;42.77;23.33;;;;;;;-145.18;100.00;46638.91;5073771;28;20107;-65
2023/06/23 02:07:40;;;;;;;45.13;23.23;;;;;;;-145.18;100.00;46635.00;5072859;28;20769;-65
2023/06/23 02:10:07;;;;;;;43.57;22.97;;;;;;;-145.18;100.00;46631.09;5074282;28;20486;-65
2023/06/23 02:12:35;;;;;;;38.33;23.70;;;;;;;-145.18;100.00;46635.00;5066078;28;20058;-65
2023/06/23 02:15:03;;;;;;;40.33;24.40;;;;;;;-145.18;100.00;46633.06;5073572;28;20036;-65
2023/06/23 02:17:29;;;;;;;38.47;25.20;;;;;;;-145.18;100.00;46633.06;5073295;28;20086;-65
2023/06/23 02:19:56;;;;;;;44.90;25.03;;;;;;;-145.18;100.00;46631.09;5073231;28;20032;-65
2023/06/23 02:22:24;;;;;;;47.53;26.30;;;;;;;-145.18;100.00;46629.13;5055328;28;20111;-65
2023/06/23 02:24:51;;;;;;;47.63;25.50;;;;;;;-145.18;100.00;46633.06;5073093;28;20048;-65
2023/06/23 02:27:18;;;;;;;45.53;25.73;;;;;;;-145.18;100.00;46629.13;5072838;28;20028;-65
2023/06/23 02:29:44;;;;;;;49.37;26.03;;;;;;;-145.18;100.00;46631.09;5076496;28;20129;-65
2023/06/23 02:32:16;;;;;;;44.87;25.37;;;;;;;-145.18;100.00;46636.94;5092890;28;20035;-65
2023/06/23 02:34:46;;;;;;;41.57;25.67;;;;;;;-145.18;100.00;46633.06;5091674;28;20484;-65
2023/06/23 02:37:16;;;;;;;49.37;25.77;;;;;;;-145.18;100.00;46631.09;5072795;28;20028;-65
2023/06/23 02:39:46;;;;;;;45.20;25.57;;;;;;;-145.18;100.00;46633.06;5092007;28;20112;-65
2023/06/23 02:42:15;;;;;;;40.70;24.50;;;;;;;-145.18;100.00;46629.13;5091943;28;20020;-65
2023/06/23 02:44:53;;;;;;;47.30;25.73;;;;;;;-145.18;100.00;46631.09;5071827;28;20039;-65
2023/06/23 02:47:19;;;;;;;51.07;24.13;;;;;;;-145.18;100.00;46631.09;5086041;28;20365;-65
2023/06/23 02:49:48;;;;;;;50.43;27.37;;;;;;;-145.18;100.00;46629.13;5080247;28;20420;-66
2023/06/23 02:52:16;;;;;;;48.03;25.20;;;;;;;-145.18;100.00;46627.19;5091187;28;20140;-65
2023/06/23 02:54:45;;;;;;;48.17;25.40;;;;;;;-145.18;100.00;46625.22;5072265;28;20391;-65
2023/06/23 02:57:14;;;;;;;50.40;26.83;;;;;;;-145.18;100.00;46627.19;5088019;28;20398;-65
2023/06/23 02:59:42;;;;;;;49.80;26.37;;;;;;;-145.18;100.00;46631.09;5082866;28;20479;-66
2023/06/23 03:02:09;;;;;;;50.80;28.70;;;;;;;-145.18;100.00;46633.06;5085868;28;20043;-65
2023/06/23 03:04:36;;;;;;;53.87;28.47;;;;;;;-145.18;100.00;46633.06;5072040;28;20040;-60
2023/06/23 03:07:05;;;;;;;64.53;29.10;;;;;;;-145.18;100.00;46625.22;5073186;28;20024;-61
2023/06/23 03:09:31;;;;;;;54.70;29.07;;;;;;;-145.18;100.00;46627.19;5073030;28;20036;-61
2023/06/23 03:11:56;;;;;;;60.47;29.43;;;;;;;-145.18;100.00;46629.13;5054247;28;20031;-61
2023/06/23 03:14:21;;;;;;;58.33;30.40;;;;;;;-145.18;100.00;46627.19;5073054;28;20025;-61
2023/06/23 03:16:59;;;;;;;57.13;29.87;;;;;;;-145.18;100.00;46629.13;5073731;28;20028;-61
2023/06/23 03:19:33;;;;;;;61.53;30.43;;;;;;;-145.18;100.00;46625.22;5073288;28;20036;-61
2023/06/23 03:22:08;;;;;;;54.67;30.20;;;;;;;-145.18;100.00;46627.19;5072277;28;20074;-61
2023/06/23 03:24:38;;;;;;;61.27;29.47;;;;;;;-145.18;100.00;46629.13;5072626;28;20029;-64
2023/06/23 03:27:07;;;;;;;63.63;30.93;;;;;;;-145.18;100.00;46625.22;5072637;28;20648;-61
2023/06/23 03:29:38;;;;;;;66.90;31.40;;;;;;;-145.18;100.00;46625.22;5073351;28;20526;-60
2023/06/23 03:32:06;;;;;;;58.57;30.87;;;;;;;-145.18;100.00;46631.09;5072768;28;20418;-61
2023/06/23 03:34:41;;;;;;;64.23;30.67;;;;;;;-145.18;100.00;46627.19;5072605;28;20039;-61
2023/06/23 03:37:08;;;;;;;;;;;;;;;-145.18;100.00;46629.13;5076342;28;20537;-60
2023/06/23 03:39:40;;;;;;;55.63;28.93;;;;;;;-145.18;100.00;46625.22;5083158;28;19965;-61
2023/06/23 03:42:07;;;;;;;62.07;32.10;;;;;;;-145.18;100.00;46629.13;5070175;28;20032;-61
2023/06/23 03:44:39;;;;;;;63.50;31.17;;;;;;;-145.18;100.00;46631.09;5076657;28;20063;-61
2023/06/23 03:47:14;;;;;;;68.73;33.23;;;;;;;-145.18;100.00;46629.13;5081263;28;20046;-61
2023/06/23 03:49:43;;;;;;;61.75;30.77;;;;;;;-145.18;100.00;46625.22;5086485;28;20035;-60
2023/06/23 03:52:10;;;;;;;67.27;32.97;;;;;;;-145.18;100.00;46629.13;5088715;28;20475;-61
2023/06/23 03:54:39;;;;;;;66.20;31.97;;;;;;;-145.18;100.00;46629.13;5088195;28;20031;-61
2023/06/23 03:57:10;;;;;;;72.73;35.30;;;;;;;-145.18;100.00;46625.22;5077863;28;20027;-61
2023/06/23 03:59:38;;;;;;;68.10;34.00;;;;;;;-145.18;100.00;46625.22;5078529;28;20028;-61
2023/06/23 04:02:06;;;;;;;78.13;34.90;;;;;;;-145.18;100.00;46625.22;5079184;28;20031;-61
2023/06/23 04:04:34;;;;;;;71.67;34.57;;;;;;;-145.18;100.00;46629.13;5075135;28;20495;-61
2023/06/23 04:07:01;;;;;;;70.17;36.23;;;;;;;-145.18;100.00;46625.22;5075348;28;20044;-61
2023/06/23 04:09:28;;;;;;;72.47;34.83;;;;;;;-145.18;100.00;46625.22;5077843;28;20016;-61
2023/06/23 04:11:56;;;;;;;69.53;34.97;;;;;;;-145.18;100.00;46629.13;5074834;28;20035;-61
2023/06/23 04:14:24;;;;;;;80.63;37.17;;;;;;;-145.18;100.00;46627.19;5076355;28;20028;-60
2023/06/23 04:16:51;;;;;;;74.97;34.87;;;;;;;-145.18;100.00;46625.22;5077384;28;20049;-60
2023/06/23 04:19:17;;;;;;;75.73;36.03;;;;;;;-145.18;100.00;46629.13;5076993;28;20041;-60
2023/06/23 04:21:44;;;;;;;87.97;38.67;;;;;;;-145.18;100.00;46629.13;5060192;28;20024;-61
2023/06/23 04:24:12;;;;;;;83.03;38.87;;;;;;;-145.18;100.00;46631.09;5075974;28;20028;-61
2023/06/23 04:26:40;;;;;;;74.30;36.57;;;;;;;-145.18;100.00;46629.13;5074497;28;20131;-61
2023/06/23 04:29:09;;;;;;;77.80;37.53;;;;;;;-145.18;100.00;46629.13;5058636;28;20115;-61
2023/06/23 04:31:36;;;;;;;77.40;37.70;;;;;;;-145.18;100.00;46627.19;5076571;28;20031;-61
2023/06/23 04:34:02;;;;;;;84.10;38.27;;;;;;;-145.18;100.00;46627.19;5075185;28;20039;-60
2023/06/23 04:36:37;;;;;;;83.80;37.50;;;;;;;-145.18;100.00;46631.09;5078051;28;20028;-60
2023/06/23 04:39:12;;;;;;;76.30;37.85;;;;;;;-145.18;100.00;46627.19;5082009;28;20107;-61
2023/06/23 04:41:42;;;;;;;82.30;38.08;;;;;;;-145.18;100.00;46625.22;5074234;28;20498;-60
2023/06/23 04:44:10;;;;;;;75.27;36.27;;;;;;;-145.18;100.00;46627.19;5063987;28;20020;-61
2023/06/23 04:46:40;;;;;;;78.90;37.73;;;;;;;-145.18;100.00;46627.19;5074392;28;20106;-61
2023/06/23 04:49:08;;;;;;;71.77;36.27;;;;;;;-145.18;100.00;46629.13;5074279;28;20487;-60
2023/06/23 04:51:46;;;;;;;72.33;37.60;;;;;;;-145.18;100.00;46629.13;5070265;28;20097;-61
2023/06/23 04:54:17;;;;;;;87.53;38.23;;;;;;;-145.18;100.00;46625.22;5068592;28;20043;-61
2023/06/23 04:56:45;;;;;;;79.13;37.97;;;;;;;-145.18;100.00;46623.28;5072896;28;20027;-61
2023/06/23 04:59:14;;;;;;;83.50;37.73;;;;;;;-145.18;100.00;46625.22;5084899;28;20391;-61
2023/06/23 05:01:42;;;;;;;86.73;37.97;;;;;;;-145.18;100.00;46627.19;5082355;28;20032;-61
2023/06/23 05:04:09;;;;;;;75.80;35.30;;;;;;;-145.18;100.00;46631.09;5085294;28;20032;-61
2023/06/23 05:06:37;;;;;;;73.60;33.73;;;;;;;-145.18;100.00;46629.13;5081176;28;20032;-60
2023/06/23 05:09:04;;;;;;;89.47;36.93;;;;;;;-145.18;100.00;46627.19;5075063;28;20028;-60
2023/06/23 05:11:32;;;;;;;80.03;34.40;;;;;;;-145.18;100.00;46623.28;5076052;28;20534;-61
2023/06/23 05:13:58;;;;;;;78.90;33.50;;;;;;;-145.18;100.00;46629.13;5080199;28;20095;-60
2023/06/23 05:16:25;;;;;;;83.70;33.90;;;;;;;-145.18;100.00;46629.13;5094216;28;20487;-60
2023/06/23 05:18:52;;;;;;;83.17;36.20;;;;;;;-145.18;100.00;46625.22;5081069;28;20028;-60
2023/06/23 05:21:21;;;;;;;73.50;31.83;;;;;;;-145.18;100.00;46625.22;5074248;28;20036;-61
2023/06/23 05:23:49;;;;;;;80.03;35.97;;;;;;;-145.18;100.00;46625.22;5074226;28;20028;-65
2023/06/23 05:26:15;;;;;;;79.37;34.17;;;;;;;-145.18;100.00;46629.13;5073941;28;20166;-66
2023/06/23 05:28:43;;;;;;;74.97;33.53;;;;;;;-145.18;100.00;46627.19;5056144;28;20039;-66
2023/06/23 05:31:11;;;;;;;75.60;34.17;;;;;;;-145.18;100.00;46627.19;5074192;28;20047;-66
2023/06/23 05:33:37;;;;;;;76.33;34.37;;;;;;;-145.18;100.00;46629.13;5074199;28;20024;-66
2023/06/23 05:36:07;;;;;;;78.87;35.30;;;;;;;-145.18;100.00;46625.22;5057281;28;20056;-65
2023/06/23 05:38:36;;;;;;;76.80;34.20;;;;;;;-145.18;100.00;46625.22;5074634;28;20074;-66
2023/06/23 05:41:01;;;;;;;80.50;34.17;;;;;;;-145.18;100.00;46619.38;5061853;28;20421;-66
2023/06/23 05:43:27;;;;;;;74.50;33.43;;;;;;;-145.18;100.00;46629.13;5065197;28;20028;-66
2023/06/23 05:45:53;;;;;;;67.10;28.60;;;;;;;-145.18;100.00;46621.31;5069209;28;20041;-66
2023/06/23 05:48:36;;;;;;;64.20;29.50;;;;;;;-145.18;100.00;46625.22;5064737;28;20785;-65
2023/06/23 05:51:07;;;;;;;65.57;29.77;;;;;;;-145.18;100.00;46625.22;5073232;28;20016;-66
2023/06/23 05:53:34;;;;;;;61.67;28.73;;;;;;;-145.18;100.00;46625.22;5078449;28;20052;-65
2023/06/23 05:56:05;;;;;;;68.50;30.87;;;;;;;-145.18;100.00;46625.22;5066837;28;20032;-65
2023/06/23 05:58:36;;;;;;;69.17;30.93;;;;;;;-145.18;100.00;46619.38;5067064;28;20508;-65
2023/06/23 06:01:07;;;;;;;68.37;29.70;;;;;;;-145.18;100.00;46621.31;5079262;28;20029;-66
2023/06/23 06:03:45;;;;;;;67.87;30.43;;;;;;;-145.18;100.00;46621.31;5063357;28;20029;-65
2023/06/23 06:06:12;;;;;;;62.87;30.27;;;;;;;-145.18;100.00;46617.41;5065379;28;21259;-66
2023/06/23 06:08:40;;;;;;;62.20;30.67;;;;;;;-145.18;100.00;46623.28;5068094;28;20052;-65
2023/06/23 06:11:07;;;;;;;64.03;30.27;;;;;;;-145.18;100.00;46621.31;5066749;28;20024;-66
2023/06/23 06:13:43;;;;;;;62.00;30.73;;;;;;;-145.18;100.00;46623.28;5069780;28;20128;-66
2023/06/23 06:16:10;;;;;;;56.60;29.95;;;;;;;-145.18;100.00;46623.28;5072361;28;20025;-65
2023/06/23 06:18:37;;;;;;;54.00;27.07;;;;;;;-145.18;100.00;46625.22;5072178;28;20039;-66
2023/06/23 06:21:07;;;;;;;55.90;29.67;;;;;;;-145.18;100.00;46627.19;5072905;28;20577;-65
2023/06/23 06:23:33;;;;;;;60.87;29.63;;;;;;;-145.18;100.00;46623.28;5073535;28;20040;-66
2023/06/23 06:26:00;;;;;;;48.53;27.63;;;;;;;-145.18;100.00;46627.19;5072321;28;20454;-66
2023/06/23 06:28:27;;;;;;;55.07;27.33;;;;;;;-145.18;100.00;46629.13;5074471;28;20040;-65
2023/06/23 06:30:55;;;;;;;47.77;27.27;;;;;;;-145.18;100.00;46633.06;5076582;28;20063;-66
2023/06/23 06:33:22;;;;;;;53.23;28.00;;;;;;;-145.18;100.00;46633.06;5072819;28;20472;-65
2023/06/23 06:35:50;;;;;;;53.63;27.73;;;;;;;-145.18;100.00;46627.19;5071990;28;20036;-66
2023/06/23 06:38:17;;;;;;;50.13;27.33;;;;;;;-145.18;100.00;46633.06;5056230;28;20043;-65
2023/06/23 06:40:46;;;;;;;53.13;27.40;;;;;;;-145.18;100.00;46633.06;5054389;28;20029;-66
2023/06/23 06:43:12;;;;;;;46.87;26.77;;;;;;;-145.18;100.00;46633.06;5070482;28;20028;-65
2023/06/23 06:45:37;;;;;;;46.20;26.13;;;;;;;-145.18;100.00;46633.06;5071456;28;20040;-66
2023/06/23 06:48:04;;;;;;;47.43;26.23;;;;;;;-145.18;100.00;46636.94;5053976;28;20028;-65
2023/06/23 06:50:31;;;;;;;47.07;26.10;;;;;;;-145.18;100.00;46636.94;5071623;28;20150;-66
2023/06/23 06:52:57;;;;;;;44.70;25.83;;;;;;;-145.18;100.00;46636.94;5071665;28;20119;-65
2023/06/23 06:55:24;;;;;;;50.03;25.60;;;;;;;-145.18;100.00;46636.94;5072513;28;20039;-66
2023/06/23 06:57:49;;;;;;;44.60;24.93;;;;;;;-145.18;100.00;46640.88;5071766;28;20090;-65
2023/06/23 07:00:20;;;;;;;42.83;24.33;;;;;;;-145.18;100.00;46640.88;5071553;28;20033;-65
2023/06/23 07:02:45;;;;;;;47.80;24.53;;;;;;;-145.18;100.00;46638.91;5071415;28;20480;-65
2023/06/23 07:05:12;;;;;;;41.03;23.77;;;;;;;-145.18;100.00;46642.81;5072445;28;20089;-66
2023/06/23 07:07:38;;;;;;;43.50;23.70;;;;;;;-145.18;100.00;46644.78;5071159;28;20089;-65
2023/06/23 07:10:04;;;;;;;39.33;22.47;;;;;;;-145.18;100.00;46644.78;5072362;28;20119;-66
2023/06/23 07:12:33;;;;;;;39.40;22.47;;;;;;;-145.18;100.00;46646.72;5071608;28;20557;-65
2023/06/23 07:14:58;;;;;;;35.97;20.90;;;;;;;-145.18;100.00;46652.59;5054114;28;20032;-65
2023/06/23 07:17:24;;;;;;;39.60;22.43;;;;;;;-145.18;100.00;46650.63;5072185;28;20036;-66
2023/06/23 07:19:50;;;;;;;38.37;22.00;;;;;;;-145.18;100.00;46650.63;5071583;28;20115;-65
2023/06/23 07:22:17;;;;;;;36.20;21.87;;;;;;;-145.18;100.00;46648.69;5070889;28;20032;-65
2023/06/23 07:24:42;;;;;;;35.77;21.53;;;;;;;-145.18;100.00;46658.44;5071320;28;20411;-65
2023/06/23 07:27:08;;;;;;;34.60;20.33;;;;;;;-145.18;100.00;46664.31;5071249;28;20049;-65
2023/06/23 07:29:35;;;;;;;33.93;20.37;;;;;;;-145.18;100.00;46658.44;5071675;28;20032;-66
2023/06/23 07:32:01;;;;;;;34.07;20.40;;;;;;;-145.18;100.00;46662.34;5073440;28;20104;-66
2023/06/23 07:34:28;;;;;;;34.47;20.73;;;;;;;-145.18;100.00;46666.25;5073632;28;20051;-66
2023/06/23 07:36:53;;;;;;;35.10;18.87;;;;;;;-145.18;100.00;46664.31;5071199;28;20036;-65
2023/06/23 07:39:19;;;;;;;31.03;16.93;;;;;;;-145.18;100.00;46668.22;5052254;28;20040;-65
2023/06/23 07:41:44;;;;;;;27.33;16.63;;;;;;;-145.18;100.00;46668.22;5070337;28;20096;-65
2023/06/23 07:44:10;;;;;;;37.63;20.07;;;;;;;-145.18;100.00;46668.22;5053185;28;20032;-61
2023/06/23 07:46:35;;;;;;;24.57;15.07;;;;;;;-145.18;100.00;46676.03;5041566;28;20042;-61
2023/06/23 07:49:00;;;;;;;25.10;16.00;;;;;;;-145.18;100.00;46672.13;5080077;28;20038;-61
2023/06/23 07:51:26;;;;;;;28.27;16.03;;;;;;;-145.18;100.00;46670.16;5071464;28;21460;-61
2023/06/23 07:53:52;;;;;;;24.20;14.87;;;;;;;-145.18;100.00;46672.13;5052488;28;20051;-61
2023/06/23 07:56:17;;;;;;;33.40;16.47;;;;;;;-145.18;100.00;46670.16;5071256;28;20056;-61
2023/06/23 07:58:43;;;;;;;26.90;16.03;;;;;;;-145.18;100.00;46674.06;5071217;28;20033;-61
2023/06/23 08:01:08;;;;;;;23.63;14.90;;;;;;;-145.18;100.00;46674.06;5054935;28;20029;-62
2023/06/23 08:03:33;;;;;;;25.40;14.73;;;;;;;-145.18;100.00;46677.97;5052396;28;20040;-61
2023/06/23 08:05:59;;;;;;;19.60;13.03;;;;;;;-145.18;100.00;46683.84;5072058;28;20029;-61
2023/06/23 08:08:24;;;;;;;21.10;13.53;;;;;;;-145.18;100.00;46681.88;5073305;28;20506;-61
2023/06/23 08:10:50;;;;;;;19.13;11.50;;;;;;;-145.18;100.00;46685.78;5053973;28;20040;-61
2023/06/23 08:13:15;;;;;;;18.27;11.37;;;;;;;-145.18;100.00;46691.66;5071720;28;20093;-61
2023/06/23 08:15:41;;;;;;;19.13;12.20;;;;;;;-145.18;100.00;46685.78;5069773;28;20070;-61
2023/06/23 08:18:07;;;;;;;18.63;10.87;;;;;;;-145.18;100.00;46687.75;5071410;28;20058;-62
2023/06/23 08:20:33;;;;;;;16.17;11.10;;;;;;;-145.18;100.00;46689.69;5053948;28;20060;-61
2023/06/23 08:22:58;;;;;;;17.53;10.87;;;;;;;-145.18;100.00;46691.66;5072213;28;20115;-61
2023/06/23 08:25:24;;;;;;;20.53;10.87;;;;;;;-145.18;100.00;46695.56;5074490;28;20055;-62
2023/06/23 08:27:49;;;;;;;14.93;9.73;;;;;;;-145.18;100.00;46693.59;5052125;28;20037;-62
2023/06/23 08:30:15;;;;;;;14.27;8.83;;;;;;;-145.18;100.00;46691.66;5071209;28;20040;-61
2023/06/23 08:32:40;;;;;;;15.63;9.50;;;;;;;-145.18;100.00;46687.75;5072261;28;20534;-62
2023/06/23 08:35:06;;;;;;;16.10;9.07;;;;;;;-145.18;100.00;46697.50;5070274;28;20068;-62
2023/06/23 08:37:31;;;;;;;16.17;8.87;;;;;;;-145.18;100.00;46691.66;5050689;28;20044;-62
2023/06/23 08:39:57;;;;;;;14.53;9.13;;;;;;;-145.18;100.00;46689.69;5072886;28;20039;-61
2023/06/23 08:42:24;;;;;;;15.90;10.07;;;;;;;-145.18;100.00;46697.50;5076415;28;20097;-62
2023/06/23 08:44:52;;;;;;;14.47;8.93;;;;;;;-145.18;100.00;46687.75;5071741;28;20036;-61
2023/06/23 08:47:19;;;;;;;14.43;9.13;;;;;;;-145.18;100.00;46691.66;5073574;28;20028;-62
2023/06/23 08:49:48;;;;;;;10.43;7.43;;;;;;;-145.18;100.00;46697.50;5085172;28;20387;-62
2023/06/23 08:52:14;;;;;;;11.93;8.37;;;;;;;-145.18;100.00;46697.50;5066055;28;20111;-61
2023/06/23 08:54:40;;;;;;;12.87;8.07;;;;;;;-145.18;100.00;46693.59;5094738;28;20036;-62
2023/06/23 08:57:07;;;;;;;12.30;7.77;;;;;;;-145.18;100.00;46683.84;5093591;28;20039;-62
2023/06/23 08:59:33;;;;;;;9.67;6.20;;;;;;;-145.18;100.00;46625.22;5095044;28;20111;-62
2023/06/23 09:01:58;;;;;;;10.30;7.90;;;;;;;-145.18;100.00;46638.91;5102082;28;20135;-62
2023/06/23 09:04:24;;;;;;;11.00;7.77;;;;;;;-145.18;100.00;46666.25;5081946;28;20090;-62
2023/06/23 09:06:49;;;;;;;12.73;6.20;;;;;;;-145.18;100.00;46629.13;5073235;28;20037;-62
2023/06/23 09:09:15;;;;;;;8.50;5.83;;;;;;;-145.18;100.00;46564.69;5058544;28;20111;-61
2023/06/23 09:11:43;;;;;;;8.43;6.27;;;;;;;-145.18;100.00;46572.50;5089834;28;20395;-62
2023/06/23 09:14:10;;;;;;;9.43;6.17;;;;;;;-145.18;100.00;46564.69;5086226;28;20093;-62
2023/06/23 09:16:37;;;;;;;6.70;5.47;;;;;;;-145.18;100.00;46566.63;5087519;28;20491;-62
2023/06/23 09:19:05;;;;;;;8.77;6.40;;;;;;;-145.18;100.00;46572.50;5076690;28;20118;-62
2023/06/23 09:21:34;;;;;;;8.57;5.80;;;;;;;-145.18;100.00;46572.50;5077691;28;21309;-62
2023/06/23 09:24:07;;;;;;;7.53;5.50;;;;;;;-145.18;100.00;46566.63;5090678;28;20106;-62
2023/06/23 09:26:47;;;;;;;9.30;5.67;;;;;;;-145.18;100.00;46576.41;5086541;28;20064;-62
2023/06/23 09:29:14;;;;;;;8.83;5.90;;;;;;;-145.18;100.00;46566.63;5089108;28;20032;-62
2023/06/23 09:31:40;;;;;;;9.57;5.63;;;;;;;-145.18;100.00;46574.44;5086901;28;20028;-61
2023/06/23 09:34:05;;;;;;;7.20;5.37;;;;;;;-145.18;100.00;46580.31;5084751;28;20081;-62
2023/06/23 09:36:35;;;;;;;6.83;4.83;;;;;;;-145.18;100.00;46578.34;5084269;28;20069;-61
2023/06/23 09:39:01;;;;;;;8.80;5.57;;;;;;;-145.18;100.00;46574.44;5081001;28;20425;-62
2023/06/23 09:41:31;;;;;;;8.03;5.80;;;;;;;-145.18;100.00;46564.69;5080100;28;20024;-62
2023/06/23 09:43:57;;;;;;;12.93;5.85;;;;;;;-145.18;100.00;46562.72;5084616;28;20024;-62
2023/06/23 09:46:22;;;;;;;8.80;6.15;;;;;;;-145.18;100.00;46572.50;5081008;28;20140;-62
2023/06/23 09:48:50;;;;;;;7.75;5.32;;;;;;;-145.18;100.00;46574.44;5088124;28;20111;-62
2023/06/23 09:51:19;;;;;;;8.55;5.57;;;;;;;-145.18;100.00;46570.53;5072700;28;20037;-62
2023/06/23 09:53:45;;;;;;;11.63;6.32;;;;;;;-145.18;100.00;46568.59;5073357;28;20472;-62
2023/06/23 09:56:15;;;;;;;8.45;5.20;;;;;;;-145.18;100.00;46562.72;5073323;28;20031;-62
2023/06/23 09:58:42;;;;;;;8.20;5.13;;;;;;;-145.18;100.00;46562.72;5073905;28;20488;-62
2023/06/23 10:01:10;;;;;;;8.85;5.47;;;;;;;-145.18;100.00;46570.53;5073243;28;20098;-62
2023/06/23 10:03:52;;;;;;;6.63;4.40;;;;;;;-145.18;100.00;46586.16;5073321;28;20174;-61
2023/06/23 10:06:35;;;;;;;7.32;4.63;;;;;;;-145.18;100.00;46570.53;5073930;28;20082;-62
2023/06/23 10:09:02;;;;;;;7.68;3.38;;;;;;;-145.18;100.00;46787.38;5078954;28;20043;-62
2023/06/23 10:11:33;;;;;;;4.68;3.70;;;;;;;-145.18;100.00;47000.28;5091025;28;20020;-62
2023/06/23 10:14:05;;;;;;;3.95;2.83;;;;;;;-145.18;100.00;47135.09;5084268;28;20455;-62
2023/06/23 10:16:31;;;;;;;4.03;3.08;;;;;;;-145.18;100.00;47113.59;5087375;28;20036;-62
2023/06/23 10:18:57;;;;;;;4.00;2.80;;;;;;;-145.18;100.00;47082.34;5082932;28;20039;-62
2023/06/23 10:21:23;;;;;;;4.10;2.63;;;;;;;-145.18;100.00;47076.47;5076047;28;20051;-62
2023/06/23 10:23:50;;;;;;;4.55;2.92;;;;;;;-145.18;100.00;47058.91;5077686;28;20059;-62
2023/06/23 10:26:17;;;;;;;3.60;3.15;;;;;;;-145.18;100.00;47053.03;5077746;28;20056;-62
2023/06/23 10:28:46;;;;;;;3.58;2.72;;;;;;;-145.18;100.00;47043.28;5087693;28;20024;-62
2023/06/23 10:31:12;;;;;;;3.92;3.08;;;;;;;-145.18;100.00;47043.28;5061212;28;20023;-62
2023/06/23 10:33:40;;;;;;;3.53;2.85;;;;;;;-145.18;100.00;47039.34;5061344;28;20052;-62
2023/06/23 10:36:08;;;;;;;4.45;2.90;;;;;;;-145.18;100.00;47029.59;5072377;28;20040;-62
2023/06/23 10:38:34;;;;;;;3.25;2.67;;;;;;;-145.18;100.00;47041.31;5070399;28;20028;-62
2023/06/23 10:41:01;;;;;;;5.55;3.58;;;;;;;-145.18;100.00;47043.28;5067391;28;20028;-62
2023/06/23 10:43:33;;;;;;;6.25;3.35;;;;;;;-145.18;100.00;47045.22;5066067;28;20025;-62
2023/06/23 10:46:00;;;;;;;3.50;2.65;;;;;;;-145.18;100.00;47019.81;5067093;28;20104;-62
2023/06/23 10:48:26;;;;;;;3.72;2.80;;;;;;;-145.18;100.00;47019.81;5068128;28;20416;-62
2023/06/23 10:50:53;;;;;;;4.53;3.13;;;;;;;-145.18;100.00;47012.00;5067985;28;20021;-62
2023/06/23 10:53:25;;;;;;;4.75;3.20;;;;;;;-145.18;100.00;47027.63;5066862;28;20024;-62
2023/06/23 10:55:58;;;;;;;6.10;3.10;;;;;;;-145.18;100.00;47015.91;5068080;28;20036;-62
2023/06/23 10:58:23;;;;;;;5.45;3.45;;;;;;;-145.18;100.00;47023.72;5067414;28;21713;-62
2023/06/23 11:00:55;;;;;;;5.97;2.22;;;;;;;-145.18;100.00;47000.28;5067769;28;20024;-62